createdAt,value
2023-07-15T00:01:21.368Z,63.52
2023-07-15T00:03:47.872Z,63.96
2023-07-15T00:06:14.778Z,62.27
2023-07-15T00:08:41.374Z,64.44
2023-07-15T00:11:07.702Z,65.28
2023-07-15T00:13:34.066Z,66.43
2023-07-15T00:16:00.408Z,67.09
2023-07-15T00:18:26.976Z,65.59
2023-07-15T00:20:53.311Z,65.53
2023-07-15T00:23:19.639Z,65.64
2023-07-15T00:25:46.182Z,66.02
2023-07-15T00:28:12.554Z,65.58
2023-07-15T00:30:38.970Z,65.38
2023-07-15T00:33:05.406Z,65.61
2023-07-15T00:35:31.872Z,65.99
2023-07-15T00:37:58.460Z,65.66
2023-07-15T00:40:25.057Z,66.40
2023-07-15T00:42:51.543Z,66.54
2023-07-15T00:45:18.737Z,66.20
2023-07-15T00:47:45.082Z,66.38
2023-07-15T00:50:11.429Z,66.42
2023-07-15T00:52:37.737Z,66.65
2023-07-15T00:55:04.104Z,66.94
2023-07-15T00:57:30.492Z,66.72
2023-07-15T00:59:56.908Z,67.02
2023-07-15T01:02:23.370Z,66.48
2023-07-15T01:04:49.873Z,65.97
2023-07-15T01:07:16.227Z,66.66
2023-07-15T01:09:42.562Z,66.48
2023-07-15T01:12:08.929Z,65.83
2023-07-15T01:14:35.423Z,65.50
2023-07-15T01:17:01.800Z,65.95
2023-07-15T01:19:28.118Z,65.54
2023-07-15T01:21:54.549Z,66.13
2023-07-15T01:24:20.922Z,65.73
2023-07-15T01:26:47.438Z,66.04
2023-07-15T01:29:14.004Z,66.30
2023-07-15T01:31:41.456Z,66.45
2023-07-15T01:34:07.991Z,67.37
2023-07-15T01:36:34.435Z,67.34
2023-07-15T01:39:00.856Z,68.21
2023-07-15T01:41:27.260Z,68.52
2023-07-15T01:43:53.640Z,68.78
2023-07-15T01:46:20.099Z,68.94
2023-07-15T01:48:46.445Z,69.19
2023-07-15T01:51:12.790Z,68.94
2023-07-15T01:53:40.252Z,69.35
2023-07-15T01:56:06.643Z,70.93
2023-07-15T01:58:33.078Z,69.77
2023-07-15T02:00:59.502Z,70.86
2023-07-15T02:03:26.046Z,70.57
2023-07-15T02:05:52.482Z,70.69
2023-07-15T02:08:19.043Z,70.03
2023-07-15T02:10:45.420Z,69.42
2023-07-15T02:13:11.792Z,69.44
2023-07-15T02:15:38.114Z,69.84
2023-07-15T02:18:04.604Z,70.20
2023-07-15T02:20:31.097Z,70.42
2023-07-15T02:22:57.552Z,70.94
2023-07-15T02:25:23.996Z,71.54
2023-07-15T02:27:50.434Z,70.74
2023-07-15T02:30:16.858Z,70.57
2023-07-15T02:32:43.284Z,70.21
2023-07-15T02:35:09.685Z,69.86
2023-07-15T02:37:36.282Z,69.20
2023-07-15T02:40:03.104Z,69.30
2023-07-15T02:42:29.432Z,68.46
2023-07-15T02:44:55.942Z,68.76
2023-07-15T02:47:22.304Z,70.22
2023-07-15T02:49:48.647Z,70.00
2023-07-15T02:52:14.973Z,71.08
2023-07-15T02:54:41.292Z,71.72
2023-07-15T02:57:07.681Z,72.47
2023-07-15T02:59:34.075Z,72.54
2023-07-15T03:02:00.477Z,71.98
2023-07-15T03:04:26.817Z,69.84
2023-07-15T03:06:53.147Z,71.83
2023-07-15T03:09:19.525Z,71.96
2023-07-15T03:11:45.904Z,72.12
2023-07-15T03:14:12.274Z,71.90
2023-07-15T03:16:38.627Z,71.92
2023-07-15T03:19:04.956Z,72.74
2023-07-15T03:21:31.328Z,72.49
2023-07-15T03:23:57.892Z,72.88
2023-07-15T03:26:24.213Z,73.17
2023-07-15T03:28:50.833Z,73.37
2023-07-15T03:31:17.247Z,72.62
2023-07-15T03:33:43.661Z,73.50
2023-07-15T03:36:10.005Z,74.56
2023-07-15T03:38:37.400Z,74.39
2023-07-15T03:41:03.784Z,75.10
2023-07-15T03:43:30.191Z,73.44
2023-07-15T03:45:56.597Z,75.10
2023-07-15T03:48:22.935Z,74.93
2023-07-15T03:50:49.365Z,75.08
2023-07-15T03:53:15.909Z,74.80
2023-07-15T03:55:42.243Z,74.88
2023-07-15T03:58:08.562Z,74.26
2023-07-15T04:00:34.925Z,74.72
2023-07-15T04:03:01.362Z,74.40
2023-07-15T04:05:27.799Z,75.66
2023-07-15T04:07:54.139Z,75.13
2023-07-15T04:10:20.551Z,75.33
2023-07-15T04:12:46.892Z,75.66
2023-07-15T04:15:13.277Z,75.75
2023-07-15T04:17:39.830Z,76.57
2023-07-15T04:20:06.455Z,76.44
2023-07-15T04:22:32.839Z,75.93
2023-07-15T04:24:59.255Z,76.40
2023-07-15T04:27:25.844Z,75.19
2023-07-15T04:29:52.175Z,75.28
2023-07-15T04:32:18.693Z,76.10
2023-07-15T04:34:45.139Z,75.87
2023-07-15T04:37:11.469Z,75.43
2023-07-15T04:39:37.838Z,75.26
2023-07-15T04:42:04.287Z,75.77
2023-07-15T04:44:30.713Z,76.54
2023-07-15T04:46:57.034Z,75.78
2023-07-15T04:49:23.392Z,76.27
2023-07-15T04:51:49.715Z,75.81
2023-07-15T04:54:16.091Z,75.58
2023-07-15T04:56:44.745Z,76.63
2023-07-15T04:59:11.224Z,77.08
2023-07-15T05:01:37.981Z,77.00
2023-07-15T05:04:06.372Z,76.85
2023-07-15T05:06:32.762Z,76.26
2023-07-15T05:09:01.443Z,76.22
2023-07-15T05:11:27.802Z,75.77
2023-07-15T05:13:54.632Z,74.73
2023-07-15T05:16:21.136Z,75.05
2023-07-15T05:18:47.665Z,74.46
2023-07-15T05:21:14.209Z,73.95
2023-07-15T05:23:40.768Z,74.93
2023-07-15T05:26:07.336Z,75.11
2023-07-15T05:28:33.759Z,73.91
2023-07-15T05:31:00.169Z,74.35
2023-07-15T05:33:26.571Z,73.26
2023-07-15T05:35:52.897Z,73.74
2023-07-15T05:38:19.279Z,73.19
2023-07-15T05:40:45.626Z,72.71
2023-07-15T05:43:12.000Z,72.07
2023-07-15T05:45:38.401Z,72.05
2023-07-15T05:48:04.912Z,71.70
2023-07-15T05:50:31.416Z,71.24
2023-07-15T05:52:58.039Z,69.54
2023-07-15T05:55:24.470Z,69.44
2023-07-15T05:57:51.055Z,69.98
2023-07-15T06:00:17.380Z,69.84
2023-07-15T06:02:43.755Z,68.99
2023-07-15T06:05:10.183Z,68.64
2023-07-15T06:07:36.760Z,67.65
2023-07-15T06:10:03.141Z,67.54
2023-07-15T06:12:29.470Z,68.58
2023-07-15T06:14:55.844Z,68.34
2023-07-15T06:17:22.447Z,68.14
2023-07-15T06:19:48.919Z,68.33
2023-07-15T06:22:15.252Z,68.30
2023-07-15T06:24:41.590Z,67.92
2023-07-15T06:27:07.918Z,68.09
2023-07-15T06:29:34.311Z,67.97
2023-07-15T06:32:00.653Z,67.90
2023-07-15T06:34:26.988Z,66.75
2023-07-15T06:36:55.824Z,66.94
2023-07-15T06:39:22.553Z,66.51
2023-07-15T06:41:48.947Z,66.75
2023-07-15T06:44:15.279Z,65.54
2023-07-15T06:46:41.715Z,66.36
2023-07-15T06:49:08.061Z,66.27
2023-07-15T06:51:34.387Z,65.60
2023-07-15T06:54:00.733Z,66.10
2023-07-15T06:56:27.057Z,65.46
2023-07-15T06:58:53.373Z,65.17
2023-07-15T07:01:19.943Z,64.07
2023-07-15T07:03:46.616Z,63.39
2023-07-15T07:06:12.953Z,61.09
2023-07-15T07:08:39.287Z,60.11
2023-07-15T07:11:05.611Z,59.09
2023-07-15T07:13:32.011Z,60.58
2023-07-15T07:15:58.388Z,60.65
2023-07-15T07:18:24.818Z,60.43
2023-07-15T07:20:51.246Z,59.19
2023-07-15T07:23:17.643Z,57.51
2023-07-15T07:25:43.977Z,57.30
2023-07-15T07:28:10.311Z,57.54
2023-07-15T07:30:36.670Z,56.35
2023-07-15T07:33:03.088Z,56.54
2023-07-15T07:35:29.488Z,56.62
2023-07-15T07:37:55.854Z,54.03
2023-07-15T07:40:22.259Z,54.43
2023-07-15T07:42:48.624Z,53.15
2023-07-15T07:45:14.927Z,51.10
2023-07-15T07:47:41.295Z,47.09
2023-07-15T07:50:07.665Z,48.84
2023-07-15T07:52:34.039Z,47.14
2023-07-15T07:55:00.361Z,49.57
2023-07-15T07:57:26.679Z,49.77
2023-07-15T07:59:52.990Z,49.26
2023-07-15T08:02:19.395Z,46.81
2023-07-15T08:04:45.851Z,47.09
2023-07-15T08:07:12.439Z,47.89
2023-07-15T08:09:38.846Z,46.47
2023-07-15T08:12:05.296Z,46.29
2023-07-15T08:14:31.622Z,44.21
2023-07-15T08:16:58.026Z,46.01
2023-07-15T08:19:24.442Z,46.65
2023-07-15T08:21:50.819Z,46.32
2023-07-15T08:24:17.153Z,44.33
2023-07-15T08:26:43.544Z,41.46
2023-07-15T08:29:09.912Z,40.80
2023-07-15T08:31:36.367Z,40.26
2023-07-15T08:34:02.757Z,38.59
2023-07-15T08:36:29.115Z,40.06
2023-07-15T08:38:55.426Z,41.29
2023-07-15T08:41:21.789Z,41.96
2023-07-15T08:43:50.816Z,39.02
2023-07-15T08:46:17.687Z,38.89
2023-07-15T08:48:44.106Z,39.48
2023-07-15T08:51:10.426Z,39.04
2023-07-15T08:53:36.767Z,38.67
2023-07-15T08:56:03.170Z,39.90
2023-07-15T08:58:29.550Z,41.25
2023-07-15T09:00:56.026Z,41.38
2023-07-15T09:03:22.420Z,38.08
2023-07-15T09:05:48.851Z,39.03
2023-07-15T09:08:15.171Z,39.63
2023-07-15T09:10:41.569Z,41.00
2023-07-15T09:13:07.894Z,43.53
2023-07-15T09:15:34.273Z,41.50
2023-07-15T09:18:00.781Z,40.95
2023-07-15T09:20:27.276Z,42.18
2023-07-15T09:22:53.831Z,42.10
2023-07-15T09:25:20.341Z,42.11
2023-07-15T09:27:46.670Z,44.06
2023-07-15T09:30:13.042Z,43.96
2023-07-15T09:32:39.465Z,43.95
2023-07-15T09:35:05.864Z,43.19
2023-07-15T09:37:32.235Z,43.00
2023-07-15T09:39:58.638Z,41.73
2023-07-15T09:42:25.025Z,42.71
2023-07-15T09:44:51.428Z,42.16
2023-07-15T09:47:17.745Z,42.14
2023-07-15T09:49:44.115Z,42.11
2023-07-15T09:52:10.498Z,38.83
2023-07-15T09:54:36.882Z,40.61
2023-07-15T09:57:03.218Z,40.00
2023-07-15T09:59:29.549Z,42.70
2023-07-15T10:01:55.904Z,42.64
2023-07-15T10:04:22.352Z,42.05
2023-07-15T10:06:48.751Z,42.63
2023-07-15T10:09:15.074Z,40.76
2023-07-15T10:11:41.403Z,39.41
2023-07-15T10:14:07.711Z,39.55
2023-07-15T10:16:34.142Z,41.25
2023-07-15T10:19:00.558Z,39.64
2023-07-15T10:21:26.867Z,36.96
2023-07-15T10:23:53.181Z,40.21
2023-07-15T10:26:19.552Z,42.14
2023-07-15T10:28:45.879Z,40.82
2023-07-15T10:31:12.256Z,39.15
2023-07-15T10:33:38.639Z,40.57
2023-07-15T10:36:05.025Z,40.03
2023-07-15T10:38:31.345Z,41.92
2023-07-15T10:40:57.720Z,42.34
2023-07-15T10:43:24.097Z,42.80
2023-07-15T10:45:50.433Z,42.43
2023-07-15T10:48:16.795Z,41.84
2023-07-15T10:50:43.180Z,40.89
2023-07-15T10:53:09.576Z,40.74
2023-07-15T10:55:35.986Z,41.26
2023-07-15T10:58:02.315Z,39.33
2023-07-15T11:00:28.835Z,41.13
2023-07-15T11:02:55.310Z,39.99
2023-07-15T11:05:21.763Z,41.76
2023-07-15T11:07:48.159Z,40.58
2023-07-15T11:10:14.643Z,41.07
2023-07-15T11:12:41.089Z,38.86
2023-07-15T11:15:07.459Z,39.81
2023-07-15T11:17:33.888Z,39.22
2023-07-15T11:20:00.309Z,39.04
2023-07-15T11:22:26.664Z,38.23
2023-07-15T11:24:53.016Z,38.25
2023-07-15T11:27:19.505Z,38.66
2023-07-15T11:29:45.847Z,38.98
2023-07-15T11:32:12.161Z,37.42
2023-07-15T11:34:38.571Z,37.16
2023-07-15T11:37:04.981Z,38.10
2023-07-15T11:39:31.307Z,36.96
2023-07-15T11:41:57.625Z,36.92
2023-07-15T11:44:24.072Z,34.93
2023-07-15T11:46:50.656Z,32.69
2023-07-15T11:49:17.225Z,34.00
2023-07-15T11:51:43.694Z,33.81
2023-07-15T11:54:10.088Z,33.35
2023-07-15T11:56:39.217Z,35.80
2023-07-15T11:59:05.564Z,36.00
2023-07-15T12:01:31.934Z,36.39
2023-07-15T12:04:00.650Z,37.28
2023-07-15T12:06:27.578Z,37.30
2023-07-15T12:08:53.911Z,35.97
2023-07-15T12:11:20.284Z,37.78
2023-07-15T12:13:46.622Z,37.86
2023-07-15T12:16:13.337Z,37.65
2023-07-15T12:18:39.991Z,38.18
2023-07-15T12:21:06.337Z,38.11
2023-07-15T12:23:32.703Z,39.27
2023-07-15T12:25:59.100Z,37.06
2023-07-15T12:28:25.443Z,37.92
2023-07-15T12:30:51.827Z,38.77
2023-07-15T12:33:18.222Z,39.50
2023-07-15T12:35:44.602Z,39.83
2023-07-15T12:38:10.989Z,39.21
2023-07-15T12:40:37.368Z,39.35
2023-07-15T12:43:03.902Z,41.31
2023-07-15T12:45:30.290Z,40.05
2023-07-15T12:47:58.818Z,39.16
2023-07-15T12:50:25.470Z,38.26
2023-07-15T12:52:51.794Z,39.05
2023-07-15T12:55:18.097Z,38.05
2023-07-15T12:57:44.485Z,36.98
2023-07-15T13:00:10.808Z,36.51
2023-07-15T13:02:37.223Z,37.09
2023-07-15T13:05:03.613Z,37.72
2023-07-15T13:07:29.932Z,37.40
2023-07-15T13:09:56.489Z,36.64
2023-07-15T13:12:22.879Z,34.40
2023-07-15T13:14:49.265Z,36.68
2023-07-15T13:17:15.692Z,37.36
2023-07-15T13:19:42.017Z,35.64
2023-07-15T13:22:08.379Z,36.90
2023-07-15T13:24:34.714Z,34.91
2023-07-15T13:27:01.042Z,36.64
2023-07-15T13:29:27.381Z,37.94
2023-07-15T13:31:53.738Z,37.91
2023-07-15T13:34:20.129Z,36.98
2023-07-15T13:39:35.957Z,36.06
2023-07-15T13:44:44.792Z,34.87
2023-07-15T13:52:47.799Z,35.96
2023-07-15T14:32:20.019Z,35.72
2023-07-15T14:34:46.424Z,36.38
2023-07-15T14:37:13.106Z,36.62
2023-07-15T14:39:39.483Z,35.43
2023-07-15T14:42:05.888Z,35.07
2023-07-15T14:44:32.275Z,36.86
2023-07-15T14:46:58.688Z,34.73
2023-07-15T14:49:26.114Z,37.65
2023-07-15T14:51:52.628Z,36.69
2023-07-15T14:54:18.997Z,36.85
2023-07-15T14:56:45.377Z,37.00
2023-07-15T14:59:11.764Z,36.80
2023-07-15T15:01:38.254Z,37.42
2023-07-15T15:04:04.739Z,37.48
2023-07-15T15:06:31.136Z,38.74
2023-07-15T15:08:57.456Z,36.93
2023-07-15T15:11:23.804Z,37.80
2023-07-15T15:13:50.181Z,37.48
2023-07-15T15:16:16.517Z,37.20
2023-07-15T15:18:42.846Z,36.72
2023-07-15T15:21:09.242Z,35.76
2023-07-15T15:23:35.661Z,35.42
2023-07-15T15:26:02.006Z,35.93
2023-07-15T15:28:28.371Z,36.30
2023-07-15T15:30:54.751Z,36.42
2023-07-15T15:33:21.219Z,36.53
2023-07-15T15:35:47.622Z,36.02
2023-07-15T15:38:13.955Z,36.70
2023-07-15T15:40:40.324Z,36.30
2023-07-15T15:43:06.703Z,37.08
2023-07-15T15:45:33.069Z,37.31
2023-07-15T15:47:59.542Z,36.74
2023-07-15T15:50:25.909Z,37.21
2023-07-15T15:52:52.221Z,37.26
2023-07-15T15:55:18.584Z,37.48
2023-07-15T15:57:44.902Z,38.72
2023-07-15T16:00:11.211Z,39.55
2023-07-15T16:02:37.600Z,38.92
2023-07-15T16:05:04.017Z,39.12
2023-07-15T16:07:30.348Z,40.05
2023-07-15T16:09:56.711Z,39.61
2023-07-15T16:12:23.094Z,39.44
2023-07-15T16:14:49.475Z,39.18
2023-07-15T16:17:15.853Z,38.64
2023-07-15T16:19:42.166Z,39.82
2023-07-15T16:22:08.552Z,39.20
2023-07-15T16:24:34.937Z,41.12
2023-07-15T16:27:01.326Z,39.22
2023-07-15T16:29:27.664Z,39.62
2023-07-15T16:31:54.017Z,39.71
2023-07-15T16:34:20.407Z,40.86
2023-07-15T16:36:46.739Z,39.84
2023-07-15T16:39:13.063Z,40.22
2023-07-15T16:41:39.376Z,39.94
2023-07-15T16:44:05.703Z,40.26
2023-07-15T16:46:32.058Z,40.25
2023-07-15T16:48:58.394Z,40.13
2023-07-15T16:51:24.800Z,39.81
2023-07-15T16:53:51.127Z,40.41
2023-07-15T16:56:17.457Z,41.17
2023-07-15T16:58:43.825Z,41.44
2023-07-15T17:01:10.249Z,41.61
2023-07-15T17:03:36.708Z,41.31
2023-07-15T17:06:03.082Z,41.32
2023-07-15T17:08:29.413Z,40.51
2023-07-15T17:10:55.755Z,41.63
2023-07-15T17:13:22.081Z,41.56
2023-07-15T17:15:48.484Z,41.45
2023-07-15T17:18:14.929Z,42.88
2023-07-15T17:20:41.316Z,41.52
2023-07-15T17:23:07.799Z,42.62
2023-07-15T17:25:34.272Z,42.79
2023-07-15T17:28:00.620Z,43.23
2023-07-15T17:30:26.986Z,42.75
2023-07-15T17:32:53.373Z,42.73
2023-07-15T17:35:19.774Z,42.60
2023-07-15T17:37:46.096Z,43.17
2023-07-15T17:40:12.497Z,42.62
2023-07-15T17:42:38.875Z,43.04
2023-07-15T17:45:05.215Z,42.92
2023-07-15T17:47:31.587Z,43.13
2023-07-15T17:49:58.013Z,44.74
2023-07-15T17:52:24.439Z,43.95
2023-07-15T17:54:50.811Z,44.40
2023-07-15T17:57:17.154Z,44.46
2023-07-15T17:59:43.532Z,44.49
2023-07-15T18:02:09.861Z,44.74
2023-07-15T18:04:36.253Z,44.21
2023-07-15T18:07:02.668Z,44.79
2023-07-15T18:09:29.015Z,44.82
2023-07-15T18:11:55.363Z,44.71
2023-07-15T18:14:21.749Z,45.25
2023-07-15T18:16:48.062Z,44.60
2023-07-15T18:19:14.434Z,45.16
2023-07-15T18:21:40.825Z,44.93
2023-07-15T18:24:07.201Z,44.52
2023-07-15T18:26:33.584Z,45.08
2023-07-15T18:28:59.959Z,45.12
2023-07-15T18:31:26.381Z,45.22
2023-07-15T18:33:52.758Z,46.16
2023-07-15T18:36:19.124Z,45.53
2023-07-15T18:38:45.457Z,45.76
2023-07-15T18:41:11.777Z,45.81
2023-07-15T18:43:38.168Z,46.58
2023-07-15T18:46:04.526Z,45.94
2023-07-15T18:48:30.859Z,46.81
2023-07-15T18:50:57.209Z,46.35
2023-07-15T18:53:24.615Z,47.46
2023-07-15T18:55:50.946Z,47.23
2023-07-15T18:58:17.271Z,47.13
2023-07-15T19:00:43.704Z,48.18
2023-07-15T19:03:10.266Z,48.65
2023-07-15T19:05:36.644Z,48.27
2023-07-15T19:08:03.017Z,49.74
2023-07-15T19:10:29.407Z,48.67
2023-07-15T19:12:55.804Z,48.82
2023-07-15T19:15:22.220Z,48.68
2023-07-15T19:17:48.567Z,48.61
2023-07-15T19:20:14.967Z,48.06
2023-07-15T19:22:41.437Z,47.93
2023-07-15T19:25:07.973Z,48.77
2023-07-15T19:27:34.751Z,48.85
2023-07-15T19:30:01.917Z,52.16
2023-07-15T19:32:28.631Z,57.36
2023-07-15T19:34:55.033Z,58.24
2023-07-15T19:37:21.370Z,57.44
2023-07-15T19:39:47.702Z,61.46
2023-07-15T19:42:14.108Z,58.11
2023-07-15T19:44:40.499Z,56.08
2023-07-15T19:47:06.958Z,56.41
2023-07-15T19:49:33.377Z,56.34
2023-07-15T19:51:59.736Z,56.24
2023-07-15T19:54:26.147Z,58.12
2023-07-15T19:56:52.530Z,60.57
2023-07-15T19:59:18.911Z,59.15
2023-07-15T20:01:46.325Z,60.72
2023-07-15T20:04:12.821Z,60.36
2023-07-15T20:06:39.200Z,60.79
2023-07-15T20:09:05.547Z,59.51
2023-07-15T20:11:32.074Z,59.89
2023-07-15T20:13:58.682Z,57.04
2023-07-15T20:16:25.058Z,59.63
2023-07-15T20:18:51.530Z,59.26
2023-07-15T20:21:17.983Z,59.86
2023-07-15T20:23:44.423Z,61.02
2023-07-15T20:26:10.818Z,61.16
2023-07-15T20:28:37.193Z,59.78
2023-07-15T20:31:03.773Z,58.68
2023-07-15T20:33:30.227Z,62.30
2023-07-15T20:35:56.570Z,60.77
2023-07-15T20:38:22.974Z,59.30
2023-07-15T20:40:56.584Z,57.45
2023-07-15T20:43:24.282Z,57.28
2023-07-15T20:45:50.830Z,57.68
2023-07-15T20:48:17.292Z,55.89
2023-07-15T20:50:43.647Z,55.42
2023-07-15T20:53:10.071Z,55.38
2023-07-15T20:55:36.795Z,56.96
2023-07-15T20:58:03.214Z,59.27
2023-07-15T21:00:29.647Z,59.95
2023-07-15T21:02:56.146Z,56.04
2023-07-15T21:05:22.823Z,59.15
2023-07-15T21:07:49.173Z,60.07
2023-07-15T21:10:15.541Z,59.74
2023-07-15T21:12:41.932Z,61.62
2023-07-15T21:15:08.406Z,59.64
2023-07-15T21:17:34.846Z,59.50
2023-07-15T21:20:01.329Z,61.12
2023-07-15T21:22:27.799Z,61.48
2023-07-15T21:24:54.257Z,59.24
2023-07-15T21:27:20.785Z,59.32
2023-07-15T21:29:51.412Z,59.61
2023-07-15T21:32:17.845Z,60.05
2023-07-15T21:34:45.087Z,58.08
2023-07-15T21:37:13.984Z,58.02
2023-07-15T21:39:40.584Z,57.92
2023-07-15T21:42:07.143Z,56.27
2023-07-15T21:44:33.477Z,56.65
2023-07-15T21:47:00.213Z,55.89
2023-07-15T21:49:26.633Z,57.23
2023-07-15T21:51:53.020Z,56.86
2023-07-15T21:54:19.429Z,57.90
2023-07-15T21:56:45.829Z,56.66
2023-07-15T21:59:13.012Z,57.24
2023-07-15T22:01:39.479Z,57.14
2023-07-15T22:04:05.946Z,56.42
2023-07-15T22:06:32.368Z,57.23
2023-07-15T22:08:58.734Z,56.70
2023-07-15T22:11:25.773Z,56.83
2023-07-15T22:13:52.318Z,57.26
2023-07-15T22:16:19.981Z,56.23
2023-07-15T22:18:46.839Z,57.28
2023-07-15T22:21:13.251Z,57.21
2023-07-15T22:23:39.861Z,57.08
2023-07-15T22:26:06.766Z,56.90
2023-07-15T22:28:33.371Z,56.59
2023-07-15T22:30:59.724Z,56.84
2023-07-15T22:33:26.073Z,57.10
2023-07-15T22:35:52.397Z,58.15
2023-07-15T22:38:18.713Z,56.99
2023-07-15T22:40:45.052Z,57.53
2023-07-15T22:43:11.444Z,59.19
2023-07-15T22:45:52.071Z,58.74
2023-07-15T22:48:21.561Z,59.79
2023-07-15T22:50:47.894Z,59.72
2023-07-15T22:53:14.272Z,59.45
2023-07-15T22:55:40.625Z,59.63
2023-07-15T22:58:07.076Z,59.86
2023-07-15T23:00:33.600Z,60.10
2023-07-15T23:03:00.129Z,59.59
2023-07-15T23:05:30.871Z,58.75
2023-07-15T23:07:57.399Z,58.22
2023-07-15T23:10:23.812Z,57.96
2023-07-15T23:12:50.200Z,57.86
2023-07-15T23:15:16.612Z,57.88
2023-07-15T23:17:43.202Z,58.31
2023-07-15T23:20:09.922Z,58.58
2023-07-15T23:22:37.189Z,59.05
2023-07-15T23:25:03.578Z,58.68
2023-07-15T23:27:29.970Z,59.42
2023-07-15T23:29:56.358Z,58.78
2023-07-15T23:32:22.748Z,58.66
2023-07-15T23:34:49.104Z,57.69
2023-07-15T23:37:15.428Z,58.07
2023-07-15T23:39:41.774Z,58.05
2023-07-15T23:42:08.483Z,58.65
2023-07-15T23:44:34.879Z,58.64
2023-07-15T23:47:01.289Z,58.35
2023-07-15T23:49:29.230Z,58.32
2023-07-15T23:51:58.674Z,59.33
2023-07-15T23:54:25.094Z,59.33
2023-07-15T23:56:53.587Z,58.58
2023-07-15T23:59:19.979Z,59.21
